sensor_id;sensor_type;location;lat;lon;timestamp;temperature;humidity
12384;DHT22;6256;63.808;20.336;2023-04-15T00:01:38;-2.30;99.90
12384;DHT22;6256;63.808;20.336;2023-04-15T00:04:04;-2.30;99.90
12384;DHT22;6256;63.808;20.336;2023-04-15T00:06:29;-2.30;99.90
12384;DHT22;6256;63.808;20.336;2023-04-15T00:08:55;-2.30;99.90
12384;DHT22;6256;63.808;20.336;2023-04-15T00:11:21;-2.30;99.90
12384;DHT22;6256;63.808;20.336;2023-04-15T00:13:48;-2.30;99.90
12384;DHT22;6256;63.808;20.336;2023-04-15T00:16:14;-2.40;99.90
12384;DHT22;6256;63.808;20.336;2023-04-15T00:18:40;-2.40;99.90
12384;DHT22;6256;63.808;20.336;2023-04-15T00:23:31;-2.50;99.90
12384;DHT22;6256;63.808;20.336;2023-04-15T00:25:57;-2.50;99.90
12384;DHT22;6256;63.808;20.336;2023-04-15T00:28:23;-2.60;99.90
12384;DHT22;6256;63.808;20.336;2023-04-15T00:30:49;-2.60;99.90
12384;DHT22;6256;63.808;20.336;2023-04-15T00:33:15;-2.70;99.90
12384;DHT22;6256;63.808;20.336;2023-04-15T00:35:43;-2.60;99.90
12384;DHT22;6256;63.808;20.336;2023-04-15T00:38:09;-2.70;99.90
12384;DHT22;6256;63.808;20.336;2023-04-15T00:40:36;-2.70;99.90
12384;DHT22;6256;63.808;20.336;2023-04-15T00:43:05;-2.70;99.90
12384;DHT22;6256;63.808;20.336;2023-04-15T00:45:31;-2.70;99.90
12384;DHT22;6256;63.808;20.336;2023-04-15T00:47:57;-2.80;99.90
12384;DHT22;6256;63.808;20.336;2023-04-15T00:50:23;-2.80;99.90
12384;DHT22;6256;63.808;20.336;2023-04-15T00:52:49;-2.90;99.90
12384;DHT22;6256;63.808;20.336;2023-04-15T00:55:15;-2.90;99.90
12384;DHT22;6256;63.808;20.336;2023-04-15T00:57:41;-2.90;99.90
12384;DHT22;6256;63.808;20.336;2023-04-15T01:00:07;-3.00;99.90
12384;DHT22;6256;63.808;20.336;2023-04-15T01:02:34;-3.00;99.90
12384;DHT22;6256;63.808;20.336;2023-04-15T01:05:01;-3.10;99.90
12384;DHT22;6256;63.808;20.336;2023-04-15T01:07:27;-3.10;99.90
12384;DHT22;6256;63.808;20.336;2023-04-15T01:09:52;-3.10;99.90
12384;DHT22;6256;63.808;20.336;2023-04-15T01:12:19;-3.10;99.90
12384;DHT22;6256;63.808;20.336;2023-04-15T01:14:45;-3.10;99.90
12384;DHT22;6256;63.808;20.336;2023-04-15T01:19:37;-3.30;99.90
12384;DHT22;6256;63.808;20.336;2023-04-15T01:22:04;-3.20;99.90
12384;DHT22;6256;63.808;20.336;2023-04-15T01:24:31;-3.20;99.90
12384;DHT22;6256;63.808;20.336;2023-04-15T01:26:57;-3.30;99.90
12384;DHT22;6256;63.808;20.336;2023-04-15T01:29:23;-3.30;99.90
12384;DHT22;6256;63.808;20.336;2023-04-15T01:31:50;-3.20;99.90
12384;DHT22;6256;63.808;20.336;2023-04-15T01:34:16;-3.20;99.90
12384;DHT22;6256;63.808;20.336;2023-04-15T01:36:42;-3.20;99.90
12384;DHT22;6256;63.808;20.336;2023-04-15T01:39:08;-3.20;99.90
12384;DHT22;6256;63.808;20.336;2023-04-15T01:41:33;-3.30;99.90
12384;DHT22;6256;63.808;20.336;2023-04-15T01:43:59;-3.20;99.90
12384;DHT22;6256;63.808;20.336;2023-04-15T01:46:25;-3.30;99.90
12384;DHT22;6256;63.808;20.336;2023-04-15T01:48:50;-3.20;99.90
12384;DHT22;6256;63.808;20.336;2023-04-15T01:51:16;-3.20;99.90
12384;DHT22;6256;63.808;20.336;2023-04-15T01:53:42;-3.30;99.90
12384;DHT22;6256;63.808;20.336;2023-04-15T01:56:08;-3.40;99.90
12384;DHT22;6256;63.808;20.336;2023-04-15T01:58:33;-3.40;99.90
12384;DHT22;6256;63.808;20.336;2023-04-15T02:00:59;-3.50;99.90
12384;DHT22;6256;63.808;20.336;2023-04-15T02:03:28;-3.50;99.90
12384;DHT22;6256;63.808;20.336;2023-04-15T02:05:54;-3.50;99.90
12384;DHT22;6256;63.808;20.336;2023-04-15T02:08:19;-3.60;99.90
12384;DHT22;6256;63.808;20.336;2023-04-15T02:10:45;-3.70;99.90
12384;DHT22;6256;63.808;20.336;2023-04-15T02:13:11;-3.60;99.90
12384;DHT22;6256;63.808;20.336;2023-04-15T02:15:36;-3.70;99.90
12384;DHT22;6256;63.808;20.336;2023-04-15T02:18:02;-3.70;99.90
12384;DHT22;6256;63.808;20.336;2023-04-15T02:20:28;-3.60;99.90
12384;DHT22;6256;63.808;20.336;2023-04-15T02:22:55;-3.70;99.90
12384;DHT22;6256;63.808;20.336;2023-04-15T02:25:21;-3.70;99.90
12384;DHT22;6256;63.808;20.336;2023-04-15T02:27:48;-3.60;99.90
12384;DHT22;6256;63.808;20.336;2023-04-15T02:30:14;-3.70;99.90
12384;DHT22;6256;63.808;20.336;2023-04-15T02:32:40;-3.70;99.90
12384;DHT22;6256;63.808;20.336;2023-04-15T02:35:09;-3.70;99.90
12384;DHT22;6256;63.808;20.336;2023-04-15T02:37:36;-3.70;99.90
12384;DHT22;6256;63.808;20.336;2023-04-15T02:40:07;-3.70;99.90
12384;DHT22;6256;63.808;20.336;2023-04-15T02:42:34;-3.80;99.90
12384;DHT22;6256;63.808;20.336;2023-04-15T02:45:00;-3.80;99.90
12384;DHT22;6256;63.808;20.336;2023-04-15T02:47:26;-3.80;99.90
12384;DHT22;6256;63.808;20.336;2023-04-15T02:49:51;-3.70;99.90
12384;DHT22;6256;63.808;20.336;2023-04-15T02:52:17;-3.70;99.90
12384;DHT22;6256;63.808;20.336;2023-04-15T02:54:43;-3.80;99.90
12384;DHT22;6256;63.808;20.336;2023-04-15T02:57:08;-3.80;99.90
12384;DHT22;6256;63.808;20.336;2023-04-15T02:59:36;-3.80;99.90
12384;DHT22;6256;63.808;20.336;2023-04-15T03:02:01;-3.70;99.90
12384;DHT22;6256;63.808;20.336;2023-04-15T03:04:28;-3.70;99.90
12384;DHT22;6256;63.808;20.336;2023-04-15T03:06:55;-3.80;99.90
12384;DHT22;6256;63.808;20.336;2023-04-15T03:09:21;-3.80;99.90
12384;DHT22;6256;63.808;20.336;2023-04-15T03:11:47;-3.80;99.90
12384;DHT22;6256;63.808;20.336;2023-04-15T03:14:12;-3.90;99.90
12384;DHT22;6256;63.808;20.336;2023-04-15T03:16:38;-3.90;99.90
12384;DHT22;6256;63.808;20.336;2023-04-15T03:19:04;-3.90;99.90
12384;DHT22;6256;63.808;20.336;2023-04-15T03:21:29;-3.80;99.90
12384;DHT22;6256;63.808;20.336;2023-04-15T03:23:55;-3.90;99.90
12384;DHT22;6256;63.808;20.336;2023-04-15T03:26:28;-3.90;99.90
12384;DHT22;6256;63.808;20.336;2023-04-15T03:28:55;-3.90;99.90
12384;DHT22;6256;63.808;20.336;2023-04-15T03:31:21;-3.80;99.90
12384;DHT22;6256;63.808;20.336;2023-04-15T03:33:46;-3.80;99.90
12384;DHT22;6256;63.808;20.336;2023-04-15T03:36:12;-3.90;99.90
12384;DHT22;6256;63.808;20.336;2023-04-15T03:38:38;-3.80;99.90
12384;DHT22;6256;63.808;20.336;2023-04-15T03:41:03;-3.90;99.90
12384;DHT22;6256;63.808;20.336;2023-04-15T03:43:29;-3.90;99.90
12384;DHT22;6256;63.808;20.336;2023-04-15T03:45:55;-3.90;99.90
12384;DHT22;6256;63.808;20.336;2023-04-15T03:48:21;-3.80;99.90
12384;DHT22;6256;63.808;20.336;2023-04-15T03:50:47;-3.80;99.90
12384;DHT22;6256;63.808;20.336;2023-04-15T03:53:13;-3.70;99.90
12384;DHT22;6256;63.808;20.336;2023-04-15T03:55:39;-3.80;99.90
12384;DHT22;6256;63.808;20.336;2023-04-15T03:58:04;-3.80;99.90
12384;DHT22;6256;63.808;20.336;2023-04-15T04:00:31;-3.80;99.90
12384;DHT22;6256;63.808;20.336;2023-04-15T04:02:56;-3.70;99.90
12384;DHT22;6256;63.808;20.336;2023-04-15T04:05:22;-3.70;99.90
12384;DHT22;6256;63.808;20.336;2023-04-15T04:07:48;-3.70;99.90
12384;DHT22;6256;63.808;20.336;2023-04-15T04:10:14;-3.70;99.90
12384;DHT22;6256;63.808;20.336;2023-04-15T04:12:39;-3.70;99.90
12384;DHT22;6256;63.808;20.336;2023-04-15T04:15:06;-3.70;99.90
12384;DHT22;6256;63.808;20.336;2023-04-15T04:17:35;-3.70;99.90
12384;DHT22;6256;63.808;20.336;2023-04-15T04:20:01;-3.70;99.90
12384;DHT22;6256;63.808;20.336;2023-04-15T04:22:26;-3.70;99.90
12384;DHT22;6256;63.808;20.336;2023-04-15T04:24:52;-3.50;99.90
12384;DHT22;6256;63.808;20.336;2023-04-15T04:27:18;-3.60;99.90
12384;DHT22;6256;63.808;20.336;2023-04-15T04:29:43;-3.50;99.90
12384;DHT22;6256;63.808;20.336;2023-04-15T04:32:12;-3.50;99.90
12384;DHT22;6256;63.808;20.336;2023-04-15T04:34:37;-3.50;99.90
12384;DHT22;6256;63.808;20.336;2023-04-15T04:37:03;-3.50;99.90
12384;DHT22;6256;63.808;20.336;2023-04-15T04:39:29;-3.50;99.90
12384;DHT22;6256;63.808;20.336;2023-04-15T04:41:54;-3.40;99.90
12384;DHT22;6256;63.808;20.336;2023-04-15T04:44:20;-3.40;99.90
12384;DHT22;6256;63.808;20.336;2023-04-15T04:46:46;-3.40;99.90
12384;DHT22;6256;63.808;20.336;2023-04-15T04:49:12;-3.30;99.90
12384;DHT22;6256;63.808;20.336;2023-04-15T04:51:38;-3.30;99.90
12384;DHT22;6256;63.808;20.336;2023-04-15T04:54:03;-3.20;99.90
12384;DHT22;6256;63.808;20.336;2023-04-15T04:56:29;-3.20;99.90
12384;DHT22;6256;63.808;20.336;2023-04-15T04:58:55;-3.10;99.90
12384;DHT22;6256;63.808;20.336;2023-04-15T05:01:21;-3.00;99.90
12384;DHT22;6256;63.808;20.336;2023-04-15T05:03:46;-3.00;99.90
12384;DHT22;6256;63.808;20.336;2023-04-15T05:06:12;-2.90;99.90
12384;DHT22;6256;63.808;20.336;2023-04-15T05:08:37;-2.90;99.90
12384;DHT22;6256;63.808;20.336;2023-04-15T05:11:05;-2.90;99.90
12384;DHT22;6256;63.808;20.336;2023-04-15T05:13:30;-2.80;99.90
12384;DHT22;6256;63.808;20.336;2023-04-15T05:15:56;-2.70;99.90
12384;DHT22;6256;63.808;20.336;2023-04-15T05:18:22;-2.60;99.90
12384;DHT22;6256;63.808;20.336;2023-04-15T05:20:47;-2.50;99.90
12384;DHT22;6256;63.808;20.336;2023-04-15T05:23:14;-2.40;99.90
12384;DHT22;6256;63.808;20.336;2023-04-15T05:25:40;-2.40;99.90
12384;DHT22;6256;63.808;20.336;2023-04-15T05:28:06;-2.30;99.90
12384;DHT22;6256;63.808;20.336;2023-04-15T05:30:32;-2.20;99.90
12384;DHT22;6256;63.808;20.336;2023-04-15T05:32:58;-2.20;99.90
12384;DHT22;6256;63.808;20.336;2023-04-15T05:35:23;-2.10;99.90
12384;DHT22;6256;63.808;20.336;2023-04-15T05:37:49;-2.10;99.90
12384;DHT22;6256;63.808;20.336;2023-04-15T05:40:15;-2.00;99.90
12384;DHT22;6256;63.808;20.336;2023-04-15T05:42:41;-2.00;99.90
12384;DHT22;6256;63.808;20.336;2023-04-15T05:47:37;-1.80;99.90
12384;DHT22;6256;63.808;20.336;2023-04-15T05:50:03;-1.60;99.90
12384;DHT22;6256;63.808;20.336;2023-04-15T05:52:30;-1.60;99.90
12384;DHT22;6256;63.808;20.336;2023-04-15T05:54:55;-1.50;99.90
12384;DHT22;6256;63.808;20.336;2023-04-15T05:59:47;-1.30;99.30
12384;DHT22;6256;63.808;20.336;2023-04-15T06:02:13;-1.20;99.50
12384;DHT22;6256;63.808;20.336;2023-04-15T06:04:39;-1.20;99.70
12384;DHT22;6256;63.808;20.336;2023-04-15T06:07:05;-1.10;99.10
12384;DHT22;6256;63.808;20.336;2023-04-15T06:09:31;-1.10;99.50
12384;DHT22;6256;63.808;20.336;2023-04-15T06:11:58;-0.90;99.80
12384;DHT22;6256;63.808;20.336;2023-04-15T06:14:23;-0.90;98.90
12384;DHT22;6256;63.808;20.336;2023-04-15T06:16:49;-0.80;98.00
12384;DHT22;6256;63.808;20.336;2023-04-15T06:19:15;-0.80;98.10
12384;DHT22;6256;63.808;20.336;2023-04-15T06:21:41;-0.70;98.40
12384;DHT22;6256;63.808;20.336;2023-04-15T06:24:07;-0.70;98.00
12384;DHT22;6256;63.808;20.336;2023-04-15T06:26:32;-0.60;97.40
12384;DHT22;6256;63.808;20.336;2023-04-15T06:28:58;-0.50;97.60
12384;DHT22;6256;63.808;20.336;2023-04-15T06:31:24;-0.50;97.30
12384;DHT22;6256;63.808;20.336;2023-04-15T06:33:49;-0.30;97.30
12384;DHT22;6256;63.808;20.336;2023-04-15T06:36:15;-0.20;96.30
12384;DHT22;6256;63.808;20.336;2023-04-15T06:38:41;-0.20;96.50
12384;DHT22;6256;63.808;20.336;2023-04-15T06:41:07;-0.20;96.50
12384;DHT22;6256;63.808;20.336;2023-04-15T06:43:33;-0.10;96.10
12384;DHT22;6256;63.808;20.336;2023-04-15T06:45:59;0.00;96.50
12384;DHT22;6256;63.808;20.336;2023-04-15T06:48:25;0.00;96.00
12384;DHT22;6256;63.808;20.336;2023-04-15T06:50:50;0.10;95.60
12384;DHT22;6256;63.808;20.336;2023-04-15T06:53:16;0.10;95.40
12384;DHT22;6256;63.808;20.336;2023-04-15T06:55:42;0.20;95.80
12384;DHT22;6256;63.808;20.336;2023-04-15T06:58:08;0.40;94.80
12384;DHT22;6256;63.808;20.336;2023-04-15T07:00:34;0.50;95.00
12384;DHT22;6256;63.808;20.336;2023-04-15T07:03:00;0.60;94.70
12384;DHT22;6256;63.808;20.336;2023-04-15T07:05:28;0.70;93.40
12384;DHT22;6256;63.808;20.336;2023-04-15T07:07:55;0.80;93.60
12384;DHT22;6256;63.808;20.336;2023-04-15T07:10:21;0.80;93.40
12384;DHT22;6256;63.808;20.336;2023-04-15T07:12:47;0.80;93.10
12384;DHT22;6256;63.808;20.336;2023-04-15T07:15:13;0.90;93.40
12384;DHT22;6256;63.808;20.336;2023-04-15T07:17:40;0.90;93.20
12384;DHT22;6256;63.808;20.336;2023-04-15T07:20:07;1.00;93.20
12384;DHT22;6256;63.808;20.336;2023-04-15T07:22:33;1.10;92.40
12384;DHT22;6256;63.808;20.336;2023-04-15T07:24:59;1.20;92.40
12384;DHT22;6256;63.808;20.336;2023-04-15T07:27:25;1.30;92.50
12384;DHT22;6256;63.808;20.336;2023-04-15T07:29:51;1.40;92.20
12384;DHT22;6256;63.808;20.336;2023-04-15T07:32:18;1.50;91.80
12384;DHT22;6256;63.808;20.336;2023-04-15T07:34:43;1.60;91.80
12384;DHT22;6256;63.808;20.336;2023-04-15T07:37:09;1.80;92.40
12384;DHT22;6256;63.808;20.336;2023-04-15T07:39:35;1.90;92.00
12384;DHT22;6256;63.808;20.336;2023-04-15T07:42:02;2.00;90.20
12384;DHT22;6256;63.808;20.336;2023-04-15T07:44:28;2.00;90.30
12384;DHT22;6256;63.808;20.336;2023-04-15T07:46:55;2.10;90.20
12384;DHT22;6256;63.808;20.336;2023-04-15T07:49:21;2.20;91.40
12384;DHT22;6256;63.808;20.336;2023-04-15T07:51:47;2.20;89.60
12384;DHT22;6256;63.808;20.336;2023-04-15T07:54:13;2.30;88.30
12384;DHT22;6256;63.808;20.336;2023-04-15T07:56:39;2.40;89.70
12384;DHT22;6256;63.808;20.336;2023-04-15T07:59:05;2.50;90.20
12384;DHT22;6256;63.808;20.336;2023-04-15T08:01:31;2.60;89.70
12384;DHT22;6256;63.808;20.336;2023-04-15T08:03:58;2.70;90.50
12384;DHT22;6256;63.808;20.336;2023-04-15T08:06:24;2.80;88.40
12384;DHT22;6256;63.808;20.336;2023-04-15T08:08:49;2.80;85.90
12384;DHT22;6256;63.808;20.336;2023-04-15T08:11:15;2.90;87.00
12384;DHT22;6256;63.808;20.336;2023-04-15T08:13:41;2.90;86.50
12384;DHT22;6256;63.808;20.336;2023-04-15T08:16:17;3.10;87.60
12384;DHT22;6256;63.808;20.336;2023-04-15T08:18:44;3.10;85.10
12384;DHT22;6256;63.808;20.336;2023-04-15T08:21:10;3.20;85.30
12384;DHT22;6256;63.808;20.336;2023-04-15T08:23:36;3.30;85.80
12384;DHT22;6256;63.808;20.336;2023-04-15T08:26:02;3.50;86.40
12384;DHT22;6256;63.808;20.336;2023-04-15T08:28:28;3.60;84.20
12384;DHT22;6256;63.808;20.336;2023-04-15T08:30:54;3.70;83.40
12384;DHT22;6256;63.808;20.336;2023-04-15T08:33:19;3.80;85.30
12384;DHT22;6256;63.808;20.336;2023-04-15T08:35:45;4.00;83.80
12384;DHT22;6256;63.808;20.336;2023-04-15T08:38:11;4.00;82.30
12384;DHT22;6256;63.808;20.336;2023-04-15T08:40:44;4.10;81.00
12384;DHT22;6256;63.808;20.336;2023-04-15T08:43:23;4.20;80.60
12384;DHT22;6256;63.808;20.336;2023-04-15T08:45:51;4.40;78.40
12384;DHT22;6256;63.808;20.336;2023-04-15T08:50:45;4.60;76.40
12384;DHT22;6256;63.808;20.336;2023-04-15T08:53:11;4.60;77.10
12384;DHT22;6256;63.808;20.336;2023-04-15T08:55:45;4.70;74.50
12384;DHT22;6256;63.808;20.336;2023-04-15T08:58:14;4.90;75.10
12384;DHT22;6256;63.808;20.336;2023-04-15T09:00:41;5.00;73.70
12384;DHT22;6256;63.808;20.336;2023-04-15T09:03:07;5.10;73.20
12384;DHT22;6256;63.808;20.336;2023-04-15T09:05:34;5.20;73.50
12384;DHT22;6256;63.808;20.336;2023-04-15T09:08:01;5.30;73.60
12384;DHT22;6256;63.808;20.336;2023-04-15T09:10:28;5.30;73.60
12384;DHT22;6256;63.808;20.336;2023-04-15T09:12:54;5.30;71.90
12384;DHT22;6256;63.808;20.336;2023-04-15T09:15:20;5.40;71.20
12384;DHT22;6256;63.808;20.336;2023-04-15T09:17:46;5.50;71.90
12384;DHT22;6256;63.808;20.336;2023-04-15T09:20:16;5.50;70.90
12384;DHT22;6256;63.808;20.336;2023-04-15T09:22:47;5.70;71.10
12384;DHT22;6256;63.808;20.336;2023-04-15T09:27:59;5.80;69.20
12384;DHT22;6256;63.808;20.336;2023-04-15T09:30:27;5.90;70.80
12384;DHT22;6256;63.808;20.336;2023-04-15T09:32:58;6.00;67.40
12384;DHT22;6256;63.808;20.336;2023-04-15T09:35:25;6.00;68.40
12384;DHT22;6256;63.808;20.336;2023-04-15T09:37:52;6.10;68.70
12384;DHT22;6256;63.808;20.336;2023-04-15T09:40:35;6.20;67.90
12384;DHT22;6256;63.808;20.336;2023-04-15T09:43:06;6.30;67.70
12384;DHT22;6256;63.808;20.336;2023-04-15T09:45:33;6.40;67.50
12384;DHT22;6256;63.808;20.336;2023-04-15T09:48:16;6.50;67.30
12384;DHT22;6256;63.808;20.336;2023-04-15T09:50:43;6.60;69.50
12384;DHT22;6256;63.808;20.336;2023-04-15T09:53:18;6.80;68.10
12384;DHT22;6256;63.808;20.336;2023-04-15T09:55:45;6.80;65.60
12384;DHT22;6256;63.808;20.336;2023-04-15T09:58:21;6.80;67.40
12384;DHT22;6256;63.808;20.336;2023-04-15T10:00:49;6.90;65.50
12384;DHT22;6256;63.808;20.336;2023-04-15T10:03:26;6.90;65.20
12384;DHT22;6256;63.808;20.336;2023-04-15T10:05:53;7.00;67.40
12384;DHT22;6256;63.808;20.336;2023-04-15T10:08:22;7.20;64.40
12384;DHT22;6256;63.808;20.336;2023-04-15T10:10:50;7.30;65.10
12384;DHT22;6256;63.808;20.336;2023-04-15T10:13:19;7.40;63.40
12384;DHT22;6256;63.808;20.336;2023-04-15T10:16:11;7.40;63.40
12384;DHT22;6256;63.808;20.336;2023-04-15T10:18:38;7.50;63.20
12384;DHT22;6256;63.808;20.336;2023-04-15T10:21:06;7.70;63.10
12384;DHT22;6256;63.808;20.336;2023-04-15T10:23:33;7.80;62.00
12384;DHT22;6256;63.808;20.336;2023-04-15T10:25:59;7.90;62.80
12384;DHT22;6256;63.808;20.336;2023-04-15T10:28:26;7.90;60.10
12384;DHT22;6256;63.808;20.336;2023-04-15T10:30:52;7.90;61.80
12384;DHT22;6256;63.808;20.336;2023-04-15T10:33:21;8.00;62.20
12384;DHT22;6256;63.808;20.336;2023-04-15T10:35:52;8.30;62.50
12384;DHT22;6256;63.808;20.336;2023-04-15T10:38:31;8.50;61.20
12384;DHT22;6256;63.808;20.336;2023-04-15T10:41:26;8.80;62.00
12384;DHT22;6256;63.808;20.336;2023-04-15T10:43:59;9.10;62.10
12384;DHT22;6256;63.808;20.336;2023-04-15T10:46:44;9.30;58.70
12384;DHT22;6256;63.808;20.336;2023-04-15T10:49:14;9.70;59.10
12384;DHT22;6256;63.808;20.336;2023-04-15T10:51:46;9.90;58.40
12384;DHT22;6256;63.808;20.336;2023-04-15T10:54:35;10.40;56.70
12384;DHT22;6256;63.808;20.336;2023-04-15T10:59:29;11.30;56.50
12384;DHT22;6256;63.808;20.336;2023-04-15T11:02:00;11.80;53.90
12384;DHT22;6256;63.808;20.336;2023-04-15T11:04:51;12.20;54.70
12384;DHT22;6256;63.808;20.336;2023-04-15T11:12:47;13.50;52.20
12384;DHT22;6256;63.808;20.336;2023-04-15T11:15:33;13.50;52.20
12384;DHT22;6256;63.808;20.336;2023-04-15T11:18:20;13.70;51.40
12384;DHT22;6256;63.808;20.336;2023-04-15T11:20:51;13.90;51.40
12384;DHT22;6256;63.808;20.336;2023-04-15T11:23:36;14.20;49.80
12384;DHT22;6256;63.808;20.336;2023-04-15T11:26:05;14.40;49.40
12384;DHT22;6256;63.808;20.336;2023-04-15T11:28:34;14.70;48.60
12384;DHT22;6256;63.808;20.336;2023-04-15T11:31:14;14.70;49.20
12384;DHT22;6256;63.808;20.336;2023-04-15T11:33:56;14.70;48.20
12384;DHT22;6256;63.808;20.336;2023-04-15T11:36:24;14.50;48.10
12384;DHT22;6256;63.808;20.336;2023-04-15T11:38:51;14.60;48.70
12384;DHT22;6256;63.808;20.336;2023-04-15T11:41:24;14.70;48.00
12384;DHT22;6256;63.808;20.336;2023-04-15T11:43:51;14.90;47.70
12384;DHT22;6256;63.808;20.336;2023-04-15T11:46:17;15.00;47.80
12384;DHT22;6256;63.808;20.336;2023-04-15T11:48:44;15.10;47.20
12384;DHT22;6256;63.808;20.336;2023-04-15T11:51:11;15.20;47.40
12384;DHT22;6256;63.808;20.336;2023-04-15T11:56:08;15.40;47.60
12384;DHT22;6256;63.808;20.336;2023-04-15T11:58:36;15.60;48.60
12384;DHT22;6256;63.808;20.336;2023-04-15T12:01:06;15.50;47.30
12384;DHT22;6256;63.808;20.336;2023-04-15T12:03:40;15.50;47.70
12384;DHT22;6256;63.808;20.336;2023-04-15T12:11:50;14.90;48.00
12384;DHT22;6256;63.808;20.336;2023-04-15T12:14:30;14.40;47.90
12384;DHT22;6256;63.808;20.336;2023-04-15T12:17:01;14.10;48.90
12384;DHT22;6256;63.808;20.336;2023-04-15T12:19:35;13.80;48.30
12384;DHT22;6256;63.808;20.336;2023-04-15T12:22:03;13.40;48.50
12384;DHT22;6256;63.808;20.336;2023-04-15T12:24:34;13.10;49.10
12384;DHT22;6256;63.808;20.336;2023-04-15T12:27:04;12.90;49.10
12384;DHT22;6256;63.808;20.336;2023-04-15T12:29:30;12.60;48.70
12384;DHT22;6256;63.808;20.336;2023-04-15T12:32:02;12.50;49.50
12384;DHT22;6256;63.808;20.336;2023-04-15T12:34:40;12.30;49.70
12384;DHT22;6256;63.808;20.336;2023-04-15T12:37:08;12.30;50.10
12384;DHT22;6256;63.808;20.336;2023-04-15T12:39:36;12.30;50.00
12384;DHT22;6256;63.808;20.336;2023-04-15T12:42:02;12.30;50.90
12384;DHT22;6256;63.808;20.336;2023-04-15T12:44:29;12.40;49.80
12384;DHT22;6256;63.808;20.336;2023-04-15T12:46:55;12.40;49.90
12384;DHT22;6256;63.808;20.336;2023-04-15T12:49:22;12.40;50.40
12384;DHT22;6256;63.808;20.336;2023-04-15T12:51:49;12.60;49.20
12384;DHT22;6256;63.808;20.336;2023-04-15T12:54:16;12.80;50.30
12384;DHT22;6256;63.808;20.336;2023-04-15T12:56:43;12.90;49.40
12384;DHT22;6256;63.808;20.336;2023-04-15T12:59:09;12.90;49.10
12384;DHT22;6256;63.808;20.336;2023-04-15T13:01:34;12.90;49.10
12384;DHT22;6256;63.808;20.336;2023-04-15T13:04:00;13.40;49.20
12384;DHT22;6256;63.808;20.336;2023-04-15T13:06:26;13.90;48.90
12384;DHT22;6256;63.808;20.336;2023-04-15T13:08:53;14.50;48.80
12384;DHT22;6256;63.808;20.336;2023-04-15T13:11:21;14.70;48.10
12384;DHT22;6256;63.808;20.336;2023-04-15T13:13:46;15.00;48.10
12384;DHT22;6256;63.808;20.336;2023-04-15T13:16:12;15.20;46.50
12384;DHT22;6256;63.808;20.336;2023-04-15T13:18:38;15.30;47.40
12384;DHT22;6256;63.808;20.336;2023-04-15T13:21:04;15.70;47.20
12384;DHT22;6256;63.808;20.336;2023-04-15T13:23:32;16.00;46.90
12384;DHT22;6256;63.808;20.336;2023-04-15T13:25:58;16.30;46.70
12384;DHT22;6256;63.808;20.336;2023-04-15T13:28:24;16.60;45.90
12384;DHT22;6256;63.808;20.336;2023-04-15T13:30:49;16.80;45.20
12384;DHT22;6256;63.808;20.336;2023-04-15T13:33:16;17.10;44.80
12384;DHT22;6256;63.808;20.336;2023-04-15T13:35:42;17.00;45.10
12384;DHT22;6256;63.808;20.336;2023-04-15T13:38:08;17.10;44.20
12384;DHT22;6256;63.808;20.336;2023-04-15T13:40:33;17.10;44.80
12384;DHT22;6256;63.808;20.336;2023-04-15T13:42:59;17.40;43.90
12384;DHT22;6256;63.808;20.336;2023-04-15T13:45:25;17.70;43.70
12384;DHT22;6256;63.808;20.336;2023-04-15T13:47:51;17.80;43.90
12384;DHT22;6256;63.808;20.336;2023-04-15T13:50:17;18.00;44.00
12384;DHT22;6256;63.808;20.336;2023-04-15T13:52:43;17.70;43.00
12384;DHT22;6256;63.808;20.336;2023-04-15T13:55:09;18.20;43.70
12384;DHT22;6256;63.808;20.336;2023-04-15T13:57:35;18.20;42.60
12384;DHT22;6256;63.808;20.336;2023-04-15T14:00:01;18.60;42.90
12384;DHT22;6256;63.808;20.336;2023-04-15T14:02:31;18.60;42.50
12384;DHT22;6256;63.808;20.336;2023-04-15T14:04:56;18.50;42.00
12384;DHT22;6256;63.808;20.336;2023-04-15T14:07:22;18.50;42.00
12384;DHT22;6256;63.808;20.336;2023-04-15T14:09:48;18.30;41.90
12384;DHT22;6256;63.808;20.336;2023-04-15T14:12:14;18.60;42.80
12384;DHT22;6256;63.808;20.336;2023-04-15T14:14:39;18.60;42.10
12384;DHT22;6256;63.808;20.336;2023-04-15T14:17:05;18.70;42.20
12384;DHT22;6256;63.808;20.336;2023-04-15T14:19:32;18.60;41.20
12384;DHT22;6256;63.808;20.336;2023-04-15T14:21:58;18.10;41.80
12384;DHT22;6256;63.808;20.336;2023-04-15T14:24:24;18.30;41.30
12384;DHT22;6256;63.808;20.336;2023-04-15T14:26:49;18.60;41.10
12384;DHT22;6256;63.808;20.336;2023-04-15T14:29:15;18.70;41.60
12384;DHT22;6256;63.808;20.336;2023-04-15T14:31:41;19.10;41.50
12384;DHT22;6256;63.808;20.336;2023-04-15T14:34:09;19.10;40.50
12384;DHT22;6256;63.808;20.336;2023-04-15T14:36:35;18.80;40.20
12384;DHT22;6256;63.808;20.336;2023-04-15T14:39:01;18.70;41.00
12384;DHT22;6256;63.808;20.336;2023-04-15T14:41:30;18.70;40.80
12384;DHT22;6256;63.808;20.336;2023-04-15T14:43:57;18.30;40.80
12384;DHT22;6256;63.808;20.336;2023-04-15T14:46:22;18.00;39.70
12384;DHT22;6256;63.808;20.336;2023-04-15T14:48:48;18.00;40.60
12384;DHT22;6256;63.808;20.336;2023-04-15T14:51:14;18.20;40.60
12384;DHT22;6256;63.808;20.336;2023-04-15T14:53:40;18.30;40.60
12384;DHT22;6256;63.808;20.336;2023-04-15T14:56:06;18.90;40.00
12384;DHT22;6256;63.808;20.336;2023-04-15T14:58:32;18.90;38.80
12384;DHT22;6256;63.808;20.336;2023-04-15T15:00:58;17.80;39.80
12384;DHT22;6256;63.808;20.336;2023-04-15T15:03:24;16.50;40.50
12384;DHT22;6256;63.808;20.336;2023-04-15T15:05:50;15.40;40.70
12384;DHT22;6256;63.808;20.336;2023-04-15T15:08:15;14.60;42.70
12384;DHT22;6256;63.808;20.336;2023-04-15T15:10:41;14.40;42.80
12384;DHT22;6256;63.808;20.336;2023-04-15T15:13:08;14.50;41.70
12384;DHT22;6256;63.808;20.336;2023-04-15T15:15:36;14.20;42.50
12384;DHT22;6256;63.808;20.336;2023-04-15T15:18:02;14.30;42.20
12384;DHT22;6256;63.808;20.336;2023-04-15T15:20:28;14.80;40.80
12384;DHT22;6256;63.808;20.336;2023-04-15T15:22:53;15.30;40.70
12384;DHT22;6256;63.808;20.336;2023-04-15T15:25:19;15.90;39.70
12384;DHT22;6256;63.808;20.336;2023-04-15T15:27:45;16.50;39.80
12384;DHT22;6256;63.808;20.336;2023-04-15T15:30:11;16.50;39.10
12384;DHT22;6256;63.808;20.336;2023-04-15T15:32:39;16.60;39.40
12384;DHT22;6256;63.808;20.336;2023-04-15T15:35:05;16.40;39.00
12384;DHT22;6256;63.808;20.336;2023-04-15T15:37:31;16.20;39.50
12384;DHT22;6256;63.808;20.336;2023-04-15T15:39:58;16.50;39.70
12384;DHT22;6256;63.808;20.336;2023-04-15T15:42:25;16.40;40.20
12384;DHT22;6256;63.808;20.336;2023-04-15T15:44:51;16.00;39.10
12384;DHT22;6256;63.808;20.336;2023-04-15T15:47:20;14.60;39.60
12384;DHT22;6256;63.808;20.336;2023-04-15T15:49:46;13.20;40.90
12384;DHT22;6256;63.808;20.336;2023-04-15T15:52:12;12.20;42.10
12384;DHT22;6256;63.808;20.336;2023-04-15T15:54:41;11.60;44.20
12384;DHT22;6256;63.808;20.336;2023-04-15T15:57:06;11.10;44.30
12384;DHT22;6256;63.808;20.336;2023-04-15T15:59:35;10.70;45.40
12384;DHT22;6256;63.808;20.336;2023-04-15T16:02:08;10.40;45.80
12384;DHT22;6256;63.808;20.336;2023-04-15T16:04:34;10.10;46.40
12384;DHT22;6256;63.808;20.336;2023-04-15T16:07:00;9.60;47.20